Login to view Products
 
Friday, December 02, 2022 (11:58 UTC)
Ras Al Khaimah International Airport
ICAO: OMRK
IATA: RKT
  • METAR OMRK 021100Z 33008KT 9999 FEW040 29/19 Q1012 A2991=
  • TAF OMRK 021100Z 0212/0318 32010KT 9999 SCT040 BECMG 0215/0217 VRB02KT PROB30 0221/0305 4000 HZ BKN014 BECMG 0309/0311 35010KT BECMG 0315/0317 VRB02KT=
11-- D:\Input Parser\Destinations\Final\11\OMRK_TAF.txt-- 02/12/2022-- 02/12/2022-- 3